Lenore, ID (83541)

2:12 AM PST on December 07, 2016 (GMT -0800)
| | Change Station

Elev -9999 ft 0.00 °N, 0.00 °E | Updated

Mostly Cloudy
Mostly Cloudy
22 °F
Feels Like 22 °F
N
3
Wind Variable Wind from East
Gusts mph

Today
High -- | Low -- °F
--% Chance of Precip.
Yesterday
High -- | Low -- °F
Precip. -- in
Pressure 30.40 in
Visibility 10.0 miles
Clouds Overcast 6000 ft
Dew Point 17 °F
Humidity 79%
Rainfall --
Snow Depth Not available.
7:16 AM 3:59 PM
Waxing Crescent, 51% visible
METAR KLWS 070956Z AUTO 09003KT 10SM OVC060 M04/M08 A3035 RMK AO2 SLP295 T10391078
Pressure 30.40 in
Visibility 10.0 miles
Clouds Overcast 6000 ft
Dew Point 17 °F
Humidity 79%
Rainfall --
Snow Depth Not available.
7:16 AM 3:59 PM
Waxing Crescent, 51% visible
METAR KLWS 070956Z AUTO 09003KT 10SM OVC060 M04/M08 A3035 RMK AO2 SLP295 T10391078

10-Day Weather Forecast

Almanac

Astronomy

Dec. 07, 2016 Rise Set
Actual Time
Civil Twilight
Nautical Twilight
Astronomical Twilight
Moon
Length of Visible Light
Length of Day
Tomorrow will be .
, % of the Moon is Illuminated

Today's Extremes

State Highs State Lows

Community

WunderPhotos

Upload Photos

1,956,111 photos uploaded!

WunderBlog® & News

Nearby

Air Quality

  Air Quality AQ Index Pollutant
Not available.

Snow Depth

Station Depth Elevation

Earthquake Activity

City Distance Mag. Time & Date
Minimum magnitude displayed is 2.5.

Coastal Water Temperatures

Place Temperature

Stations

Nearby Weather Stations

Station Location Temp. Windchill Dew Point Humidity Wind Precip. Elev Updated Type
                   

Watches & Warnings

There are currently no watches in effect.